CST,Max TemperatureF,Mean TemperatureF,Min TemperatureF,Max Dew PointF,MeanDew PointF,Min DewpointF,Max Humidity, Mean Humidity, Min Humidity, Max Sea Level PressureIn, Mean Sea Level PressureIn, Min Sea Level PressureIn, Max VisibilityMiles, Mean VisibilityMiles, Min VisibilityMiles, Max Wind SpeedMPH, Mean Wind SpeedMPH, Max Gust SpeedMPH,PrecipitationIn, CloudCover, Events, WindDirDegrees
2012-11-1,77,55,33,41,34,28,81,49,22,30.03,29.96,29.88,10,10,9,10,5,,0.00,0,,241
2012-11-2,64,52,39,43,37,34,81,62,42,30.08,29.89,29.78,10,10,8,22,9,26,0.00,0,,31
2012-11-3,60,46,33,39,33,28,87,65,42,30.24,30.18,30.09,10,10,7,12,7,,0.00,0,,360
2012-11-4,71,52,33,39,33,28,81,54,22,30.19,30.10,29.98,10,10,10,23,7,28,0.00,1,,240
2012-11-5,53,44,35,36,33,28,76,60,47,30.20,30.13,30.07,10,10,10,22,10,25,0.00,2,,343
2012-11-6,66,50,35,39,30,23,75,51,26,30.18,30.11,30.01,10,10,10,22,9,28,0.00,1,,324
2012-11-7,66,46,26,30,25,19,80,47,24,30.17,30.07,29.94,10,10,8,18,8,28,0.00,0,,159
2012-11-8,64,50,37,39,32,25,75,52,37,29.94,29.85,29.81,10,10,10,13,7,,0.00,0,,143
2012-11-9,69,52,35,43,35,28,81,59,35,29.81,29.70,29.60,10,10,10,15,6,,0.00,0,,18
2012-11-10,80,61,41,54,44,30,70,51,32,29.76,29.57,29.44,10,10,7,34,19,43,0.00,2,,199
2012-11-11,39,30,19,28,12,5,65,47,30,30.26,30.03,29.78,10,10,10,26,17,32,0.00,2,,329
2012-11-12,51,33,15,16,10,1,74,43,19,30.39,30.33,30.25,10,10,9,20,8,26,0.00,0,,278
2012-11-13,57,38,19,25,17,7,68,47,21,30.35,30.27,30.18,10,10,10,20,7,23,0.00,0,,178
2012-11-14,57,37,17,25,20,10,86,56,25,30.30,30.22,30.15,10,10,10,13,3,,0.00,0,,173
2012-11-15,59,44,30,30,25,19,70,55,29,30.39,30.26,30.13,10,10,10,16,6,20,0.00,0,,46
2012-11-16,60,42,23,37,28,16,80,63,39,30.40,30.32,30.23,10,10,4,18,7,25,0.00,0,,164
2012-11-17,66,52,39,43,35,28,70,55,42,30.23,30.12,30.06,10,10,10,25,15,34,0.00,0,,178
2012-11-18,62,50,37,39,34,27,81,56,42,30.10,30.01,29.93,10,10,10,26,12,28,0.00,0,,177
2012-11-19,71,50,28,37,31,25,87,57,27,30.18,30.10,29.99,10,10,5,15,7,16,0.00,0,,309
2012-11-20,71,48,26,36,30,21,86,54,25,30.25,30.18,30.14,10,10,5,13,7,,0.00,0,,231
2012-11-21,73,55,37,45,37,32,87,51,23,30.14,29.99,29.81,10,10,10,31,12,41,0.00,0,,194
2012-11-22,69,51,30,45,33,19,87,52,24,30.38,30.00,29.76,10,10,9,26,12,31,0.00,0,,325
2012-11-23,44,34,24,21,16,10,64,49,31,30.57,30.46,30.33,10,10,10,20,10,28,0.00,0,,333
2012-11-24,64,44,23,25,20,10,69,46,22,30.33,30.02,29.83,10,10,10,15,7,18,0.00,0,,204
2012-11-25,55,44,32,34,26,19,69,52,39,30.02,29.92,29.85,10,10,10,15,11,20,0.00,0,,35
2012-11-26,41,29,17,25,21,10,80,68,45,30.44,30.27,30.01,10,10,8,21,12,26,0.00,1,,25
2012-11-27,53,34,14,28,20,10,93,66,38,30.41,30.27,30.13,10,9,5,21,6,25,0.00,0,,208
2012-11-28,55,37,19,30,23,16,93,66,36,30.30,30.20,30.03,10,10,4,13,5,,0.00,0,,138
2012-11-29,62,40,19,28,24,14,100,60,26,30.03,29.98,29.92,10,10,8,9,3,,0.00,0,,257
2012-11-30,60,42,24,37,26,16,93,60,29,30.09,29.99,29.87,10,10,4,13,7,,0.00,0,,112